Aviation Digital Data Service (ADDS)

Output produced by METARs form (0250 UTC 27 August 2016)
found at http://aviationweather.gov/adds/metars/
 
KBHB 262320Z 2700/2724 21008KT P6SM FEW060 SCT200 
     FM270100 26005KT P6SM SCT250 
     FM271400 31006KT P6SM FEW250